Time;durP1;ratioP1;P1;durP2;ratioP2;P2;SDS_P1;SDS_P2;PMS_P1;PMS_P2;Temp;Humidity;BMP_temperature;BMP_pressure;BME280_temperature;BME280_humidity;BME280_pressure;Samples;Min_cycle;Max_cycle;Signal;HPM_P1;HPM_P2
2022/08/19 00:01:37;;;;;;;12.77;11.48;;;22.40;99.90;;;;;;5135278;27;19914;-67
2022/08/19 00:04:05;;;;;;;12.68;10.90;;;22.50;99.90;;;;;;5135113;27;20035;-67
2022/08/19 00:06:30;;;;;;;13.93;11.75;;;22.40;99.90;;;;;;5135169;27;20080;-66
2022/08/19 00:08:57;;;;;;;13.70;11.57;;;22.50;99.90;;;;;;5135223;27;20019;-67
2022/08/19 00:11:23;;;;;;;12.98;11.60;;;22.40;99.90;;;;;;5135160;27;20055;-67
2022/08/19 00:13:49;;;;;;;13.90;11.35;;;22.40;99.90;;;;;;5134841;27;20031;-68
2022/08/19 00:16:19;;;;;;;13.27;11.23;;;22.50;99.90;;;;;;5133652;27;20019;-67
2022/08/19 00:18:45;;;;;;;15.32;12.02;;;22.50;99.90;;;;;;5133529;27;20062;-67
2022/08/19 00:21:10;;;;;;;15.57;12.13;;;22.40;99.90;;;;;;5134588;27;20027;-67
2022/08/19 00:23:36;;;;;;;13.48;11.75;;;22.40;99.90;;;;;;5135271;27;20521;-67
2022/08/19 00:26:04;;;;;;;18.10;12.80;;;22.40;99.90;;;;;;5134931;27;20046;-67
2022/08/19 00:28:30;;;;;;;14.88;12.93;;;22.30;99.90;;;;;;5134970;27;20058;-66
2022/08/19 00:30:55;;;;;;;18.83;11.75;;;22.30;99.90;;;;;;5134763;27;20464;-66
2022/08/19 00:33:21;;;;;;;14.45;11.77;;;22.30;99.90;;;;;;5134885;27;20038;-67
2022/08/19 00:35:47;;;;;;;15.25;12.52;;;22.30;99.90;;;;;;5133403;27;20021;-67
2022/08/19 00:38:13;;;;;;;15.48;12.40;;;22.30;99.90;;;;;;5133485;27;20043;-67
2022/08/19 00:40:41;;;;;;;14.20;10.85;;;22.30;99.90;;;;;;5134715;27;20070;-67
2022/08/19 00:43:12;;;;;;;13.75;11.10;;;22.30;99.90;;;;;;5133747;27;20364;-66
2022/08/19 00:45:41;;;;;;;14.57;11.77;;;22.40;99.90;;;;;;5134009;27;20016;-66
2022/08/19 00:48:07;;;;;;;14.98;11.88;;;22.50;99.90;;;;;;5134849;27;20015;-67
2022/08/19 00:50:34;;;;;;;14.07;11.50;;;22.50;99.90;;;;;;5135624;27;20035;-67
2022/08/19 00:53:03;;;;;;;14.43;11.63;;;22.40;99.90;;;;;;5134161;28;20031;-67
2022/08/19 00:55:31;;;;;;;13.15;11.20;;;22.40;99.90;;;;;;5135144;27;20046;-67
2022/08/19 00:58:03;;;;;;;16.30;11.88;;;22.30;99.90;;;;;;5136152;27;20378;-67
2022/08/19 01:00:31;;;;;;;13.95;11.98;;;22.40;99.90;;;;;;5137362;27;20028;-67
2022/08/19 01:02:57;;;;;;;14.55;12.90;;;22.50;99.90;;;;;;5137372;27;20027;-67
2022/08/19 01:05:29;;;;;;;13.52;11.38;;;22.40;99.90;;;;;;5136498;27;20391;-67
2022/08/19 01:07:58;;;;;;;13.73;12.27;;;22.40;99.90;;;;;;5139220;27;20015;-67
2022/08/19 01:10:30;;;;;;;14.85;12.68;;;22.30;99.90;;;;;;5138852;27;20106;-67
2022/08/19 01:12:58;;;;;;;14.65;11.68;;;22.30;99.90;;;;;;5138759;27;20454;-68
2022/08/19 01:15:29;;;;;;;13.63;11.77;;;22.40;99.90;;;;;;5139368;27;20024;-67
2022/08/19 01:17:56;;;;;;;14.25;12.77;;;22.30;99.90;;;;;;5138834;27;20023;-67
2022/08/19 01:20:24;;;;;;;14.10;12.60;;;22.20;99.90;;;;;;5138585;27;20518;-66
2022/08/19 01:22:53;;;;;;;14.20;12.70;;;22.30;99.90;;;;;;5138366;27;20027;-67
2022/08/19 01:25:24;;;;;;;14.80;13.07;;;22.20;99.90;;;;;;5138552;27;20107;-66
2022/08/19 01:27:50;;;;;;;14.20;12.70;;;22.30;99.90;;;;;;5138601;27;20023;-66
2022/08/19 01:30:28;;;;;;;14.90;13.20;;;22.30;99.90;;;;;;5138399;27;20026;-67
2022/08/19 01:32:56;;;;;;;16.42;13.27;;;22.30;99.90;;;;;;5138433;27;20503;-67
2022/08/19 01:35:24;;;;;;;16.10;14.07;;;22.30;99.90;;;;;;5136848;27;20065;-67
2022/08/19 01:37:52;;;;;;;16.20;13.38;;;22.30;99.90;;;;;;5138319;27;20377;-67
2022/08/19 01:40:20;;;;;;;16.90;13.88;;;22.30;99.90;;;;;;5138155;27;20019;-67
2022/08/19 01:42:47;;;;;;;18.00;15.02;;;22.20;99.90;;;;;;5138445;27;20444;-67
2022/08/19 01:45:13;;;;;;;15.80;14.20;;;22.20;99.90;;;;;;5138189;27;20015;-67
2022/08/19 01:47:39;;;;;;;;;;;22.10;99.90;;;;;;5137694;27;20377;-67
2022/08/19 01:50:07;;;;;;;17.20;14.93;;;22.00;99.90;;;;;;5138124;27;20010;-67
2022/08/19 01:52:38;;;;;;;18.33;15.15;;;22.00;99.90;;;;;;5146368;22;20047;-68
2022/08/19 01:55:07;;;;;;;18.23;15.23;;;22.00;99.90;;;;;;5098729;28;20024;-68
2022/08/19 01:57:33;;;;;;;22.33;16.38;;;21.90;99.90;;;;;;5098110;28;20097;-68
2022/08/19 01:59:59;;;;;;;;;;;22.00;99.90;;;;;;5098002;28;20024;-68
2022/08/19 02:02:25;;;;;;;19.10;16.23;;;22.00;99.90;;;;;;5097476;28;19908;-68
2022/08/19 02:04:51;;;;;;;21.77;16.85;;;21.90;99.90;;;;;;5099742;28;20028;-68
2022/08/19 02:07:22;;;;;;;17.92;15.95;;;22.00;99.90;;;;;;5099298;28;20016;-68
2022/08/19 02:09:48;;;;;;;19.25;15.73;;;22.00;99.90;;;;;;5098407;28;20103;-69
2022/08/19 02:12:14;;;;;;;;;;;21.90;99.90;;;;;;5099045;28;20106;-68
2022/08/19 02:14:39;;;;;;;18.17;15.65;;;22.00;99.90;;;;;;5098143;28;19962;-67
2022/08/19 02:17:05;;;;;;;18.10;15.70;;;22.10;99.90;;;;;;5095607;28;20020;-67
2022/08/19 02:19:32;;;;;;;20.02;15.20;;;22.10;99.90;;;;;;5096959;28;20201;-67
2022/08/19 02:21:58;;;;;;;19.38;16.42;;;22.10;99.90;;;;;;5097167;28;20153;-68
2022/08/19 02:24:24;;;;;;;;;;;22.20;99.90;;;;;;5098426;28;20051;-68
2022/08/19 02:26:49;;;;;;;18.90;16.20;;;22.30;99.90;;;;;;5098249;28;20328;-68
2022/08/19 02:29:15;;;;;;;18.50;15.80;;;22.20;99.90;;;;;;5098460;28;20022;-69
2022/08/19 02:31:40;;;;;;;19.88;16.73;;;22.30;99.90;;;;;;5098890;28;20085;-67
2022/08/19 02:34:06;;;;;;;21.55;16.42;;;22.10;99.90;;;;;;5096988;28;20455;-68
2022/08/19 02:36:32;;;;;;;22.25;17.65;;;22.10;99.90;;;;;;5097287;28;20028;-69
2022/08/19 02:38:57;;;;;;;19.08;17.08;;;22.00;99.90;;;;;;5098327;28;20026;-67
2022/08/19 02:41:31;;;;;;;20.60;18.50;;;22.00;99.90;;;;;;5097769;28;20413;-68
2022/08/19 02:43:58;;;;;;;21.52;17.48;;;22.00;99.90;;;;;;5097656;28;20073;-69
2022/08/19 02:46:27;;;;;;;24.33;17.60;;;21.90;99.90;;;;;;5098022;28;20433;-69
2022/08/19 02:48:56;;;;;;;23.25;19.80;;;21.80;99.90;;;;;;5096635;28;20138;-69
2022/08/19 02:51:40;;;;;;;22.10;17.20;;;21.70;99.90;;;;;;5096269;28;20044;-69
2022/08/19 02:54:07;;;;;;;23.23;18.98;;;21.80;99.90;;;;;;5097049;28;20032;-68
2022/08/19 02:56:35;;;;;;;20.70;18.50;;;21.80;99.90;;;;;;5097545;28;20430;-68
2022/08/19 02:59:01;;;;;;;20.75;18.20;;;21.80;99.90;;;;;;5095907;28;20020;-68
2022/08/19 03:01:30;;;;;;;23.35;19.15;;;21.80;99.90;;;;;;5097149;28;20384;-68
2022/08/19 03:03:58;;;;;;;22.63;18.67;;;21.70;99.90;;;;;;5097255;28;20438;-68
2022/08/19 03:06:24;;;;;;;23.63;19.48;;;21.80;99.90;;;;;;5096387;28;20028;-68
2022/08/19 03:08:50;;;;;;;28.40;19.98;;;21.70;99.90;;;;;;5097005;28;20108;-69
2022/08/19 03:11:21;;;;;;;22.73;18.67;;;21.70;99.90;;;;;;5097774;28;20411;-67
2022/08/19 03:13:51;;;;;;;21.75;18.27;;;21.70;99.90;;;;;;5097703;28;20465;-67
2022/08/19 03:16:17;;;;;;;26.45;19.90;;;21.70;99.90;;;;;;5095891;28;20095;-68
2022/08/19 03:18:44;;;;;;;20.77;18.40;;;21.60;99.90;;;;;;5097436;28;20032;-67
2022/08/19 03:21:09;;;;;;;25.25;19.52;;;21.70;99.90;;;;;;5100066;28;20049;-67
2022/08/19 03:23:35;;;;;;;24.15;18.98;;;21.60;99.90;;;;;;5101907;28;20096;-67
2022/08/19 03:26:04;;;;;;;;;;;21.60;99.90;;;;;;5103853;28;20054;-68
2022/08/19 03:28:30;;;;;;;22.27;18.50;;;21.60;99.90;;;;;;5100432;28;19904;-67
2022/08/19 03:31:00;;;;;;;;;;;21.50;99.90;;;;;;5100255;28;20051;-67
2022/08/19 03:33:27;;;;;;;22.08;18.48;;;21.50;99.90;;;;;;5097535;28;19904;-68
2022/08/19 03:36:01;;;;;;;21.35;18.52;;;21.60;99.90;;;;;;5100289;28;20027;-68
2022/08/19 03:38:26;;;;;;;28.50;20.23;;;21.60;99.90;;;;;;5100995;28;20028;-68
2022/08/19 03:40:52;;;;;;;21.23;17.67;;;21.60;99.90;;;;;;5100491;28;20157;-68
2022/08/19 03:43:18;;;;;;;23.73;18.50;;;21.70;99.90;;;;;;5097400;28;20028;-68
2022/08/19 03:45:43;;;;;;;24.45;18.42;;;21.70;99.90;;;;;;5097676;28;20020;-68
2022/08/19 03:48:09;;;;;;;23.33;19.77;;;21.70;99.90;;;;;;5096649;28;20031;-67
2022/08/19 03:50:39;;;;;;;22.10;18.45;;;21.60;99.90;;;;;;5095664;28;20017;-67
2022/08/19 03:53:04;;;;;;;23.95;18.00;;;21.60;99.90;;;;;;5095396;28;20075;-68
2022/08/19 03:55:30;;;;;;;25.92;20.10;;;21.60;99.90;;;;;;5095200;28;20024;-68
2022/08/19 03:57:56;;;;;;;21.75;18.52;;;21.50;99.90;;;;;;5096189;28;20392;-68
2022/08/19 04:00:22;;;;;;;21.77;18.60;;;21.40;99.90;;;;;;5096901;28;20055;-68
2022/08/19 04:02:47;;;;;;;22.88;18.20;;;21.40;99.90;;;;;;5097109;28;20507;-68
2022/08/19 04:05:13;;;;;;;26.25;19.67;;;21.20;99.90;;;;;;5095336;28;20032;-68
2022/08/19 04:07:39;;;;;;;23.17;19.13;;;21.30;99.90;;;;;;5097231;28;20342;-68
2022/08/19 04:10:05;;;;;;;22.98;19.23;;;21.40;99.90;;;;;;5095438;28;20024;-66
2022/08/19 04:12:31;;;;;;;22.80;20.33;;;21.40;99.90;;;;;;5094770;28;20035;-67
2022/08/19 04:14:58;;;;;;;25.48;19.60;;;21.40;99.90;;;;;;5095059;28;20028;-67
2022/08/19 04:17:23;;;;;;;23.35;19.67;;;21.40;99.90;;;;;;5095178;28;20128;-68
2022/08/19 04:19:49;;;;;;;25.15;20.60;;;21.40;99.90;;;;;;5095224;28;20066;-68
2022/08/19 04:22:15;;;;;;;25.25;19.75;;;21.40;99.90;;;;;;5093202;28;20032;-68
2022/08/19 04:24:40;;;;;;;25.40;19.45;;;21.40;99.90;;;;;;5095250;28;20020;-68
2022/08/19 04:27:06;;;;;;;27.70;20.80;;;21.40;99.90;;;;;;5095372;28;20028;-68
2022/08/19 04:29:32;;;;;;;26.92;20.27;;;21.30;99.90;;;;;;5095225;28;20418;-69
2022/08/19 04:31:59;;;;;;;25.88;21.40;;;21.20;99.90;;;;;;5095056;28;20043;-69
2022/08/19 04:34:27;;;;;;;27.40;20.83;;;21.20;99.90;;;;;;5093646;28;20032;-69
2022/08/19 04:36:54;;;;;;;29.02;22.30;;;21.30;99.90;;;;;;5093669;28;20024;-69
2022/08/19 04:44:54;;;;;;;25.30;20.08;;;21.40;99.90;;;;;;5095346;28;20035;-68
2022/08/19 04:47:19;;;;;;;27.00;20.27;;;21.40;99.90;;;;;;5093480;28;20020;-68
2022/08/19 04:49:45;;;;;;;27.90;20.35;;;21.40;99.90;;;;;;5095547;28;20033;-68
2022/08/19 04:52:11;;;;;;;26.30;20.10;;;21.60;99.90;;;;;;5055407;28;1102264;-68
2022/08/19 04:54:37;;;;;;;25.88;20.58;;;21.60;99.90;;;;;;5093140;28;20423;-69
2022/08/19 04:57:05;;;;;;;25.17;19.85;;;21.60;99.90;;;;;;5093353;28;20032;-67
2022/08/19 04:59:32;;;;;;;22.77;18.50;;;21.60;99.90;;;;;;5093156;28;20445;-68
2022/08/19 05:01:57;;;;;;;28.35;19.50;;;21.60;99.90;;;;;;5091471;28;20069;-68
2022/08/19 05:04:23;;;;;;;24.70;19.55;;;21.70;99.90;;;;;;5093421;28;20028;-69
2022/08/19 05:06:49;;;;;;;23.85;19.50;;;21.70;99.90;;;;;;5095194;28;20035;-69
2022/08/19 05:09:15;;;;;;;26.27;18.75;;;21.70;99.90;;;;;;5094243;28;20059;-69
2022/08/19 05:11:41;;;;;;;24.65;20.02;;;21.70;99.90;;;;;;5091699;28;20064;-68
2022/08/19 05:14:08;;;;;;;22.73;19.13;;;21.70;99.90;;;;;;5092924;28;20096;-69
2022/08/19 05:16:34;;;;;;;23.75;20.27;;;21.80;99.90;;;;;;5091651;28;20072;-68
2022/08/19 05:24:33;;;;;;;23.77;18.73;;;21.80;99.90;;;;;;5093166;28;20034;-69
2022/08/19 05:27:02;;;;;;;24.92;18.52;;;21.80;99.90;;;;;;5092833;28;20024;-69
2022/08/19 05:29:29;;;;;;;23.38;19.65;;;21.80;99.90;;;;;;5092928;28;20020;-69
2022/08/19 05:31:55;;;;;;;22.88;18.42;;;21.80;99.90;;;;;;5091644;28;20051;-69
2022/08/19 05:34:24;;;;;;;27.65;18.92;;;21.80;99.90;;;;;;5091523;28;20051;-68
2022/08/19 05:36:51;;;;;;;23.95;18.05;;;21.90;99.90;;;;;;5091408;28;20024;-69
2022/08/19 05:39:20;;;;;;;25.02;19.55;;;21.90;99.90;;;;;;5092510;28;20024;-68
2022/08/19 05:41:49;;;;;;;23.23;18.77;;;22.10;99.90;;;;;;5091116;28;20034;-68
2022/08/19 05:44:17;;;;;;;24.17;18.17;;;22.20;99.90;;;;;;5091145;28;20020;-69
2022/08/19 05:46:49;;;;;;;24.73;20.08;;;22.20;99.90;;;;;;5092661;28;20020;-69
2022/08/19 05:49:15;;;;;;;26.48;19.77;;;22.20;99.90;;;;;;5092803;28;20020;-69
2022/08/19 05:51:42;;;;;;;22.52;17.88;;;22.30;99.90;;;;;;5094917;28;20036;-69
2022/08/19 05:54:08;;;;;;;21.40;16.60;;;22.30;99.90;;;;;;5095898;28;20032;-69
2022/08/19 05:56:38;;;;;;;26.05;19.48;;;22.30;99.90;;;;;;5095954;28;20028;-69
2022/08/19 05:59:08;;;;;;;24.50;18.75;;;22.40;99.90;;;;;;5096119;28;20481;-68
2022/08/19 06:01:34;;;;;;;20.35;16.38;;;22.40;99.90;;;;;;5095896;28;20448;-68
2022/08/19 06:04:00;;;;;;;21.52;17.65;;;22.40;99.90;;;;;;5097040;28;20032;-70
2022/08/19 06:06:26;;;;;;;25.20;17.77;;;22.40;99.90;;;;;;5096288;28;20027;-68
2022/08/19 06:08:51;;;;;;;;;;;22.50;99.90;;;;;;5097050;28;20036;-69
2022/08/19 06:11:45;;;;;;;19.10;16.88;;;22.50;99.90;;;;;;5097110;28;19946;-69
2022/08/19 06:14:14;;;;;;;20.85;16.70;;;22.50;99.90;;;;;;5093944;28;20032;-69
2022/08/19 06:16:41;;;;;;;22.75;17.10;;;22.60;99.90;;;;;;5094951;28;20131;-68
2022/08/19 06:19:10;;;;;;;19.45;17.10;;;22.70;99.90;;;;;;5096537;28;20023;-69
2022/08/19 06:21:37;;;;;;;21.40;17.38;;;22.70;99.90;;;;;;5096260;28;20085;-68
2022/08/19 06:24:05;;;;;;;18.65;16.15;;;22.70;99.90;;;;;;5095196;28;20115;-69
2022/08/19 06:26:32;;;;;;;20.40;16.65;;;22.70;99.90;;;;;;5096248;28;20479;-69
2022/08/19 06:28:58;;;;;;;22.02;17.83;;;22.70;99.90;;;;;;5095569;28;20025;-69
2022/08/19 06:31:26;;;;;;;21.52;16.20;;;22.60;99.90;;;;;;5095760;28;20035;-69
2022/08/19 06:33:52;;;;;;;20.45;16.73;;;22.70;99.90;;;;;;5095621;28;20020;-68
2022/08/19 06:36:27;;;;;;;18.85;15.98;;;22.70;99.90;;;;;;5094259;28;20393;-69
2022/08/19 06:38:54;;;;;;;20.42;16.05;;;22.80;99.90;;;;;;5094500;28;20020;-68
2022/08/19 06:41:19;;;;;;;21.83;17.75;;;22.90;99.90;;;;;;5094472;28;20028;-68
2022/08/19 06:43:46;;;;;;;18.40;16.35;;;22.90;99.90;;;;;;5096181;28;20415;-69
2022/08/19 06:46:14;;;;;;;26.02;17.67;;;23.00;99.90;;;;;;5094163;28;20094;-68
2022/08/19 06:48:39;;;;;;;17.85;15.65;;;23.10;99.90;;;;;;5093866;28;20028;-68
2022/08/19 06:51:05;;;;;;;16.98;14.85;;;23.20;99.90;;;;;;5094465;28;20124;-69
2022/08/19 06:53:32;;;;;;;21.42;15.48;;;23.30;99.90;;;;;;5095762;28;20063;-69
2022/08/19 06:56:01;;;;;;;18.05;15.98;;;23.40;99.90;;;;;;5097368;28;20024;-70
2022/08/19 06:58:31;;;;;;;17.75;15.75;;;23.40;99.90;;;;;;5094384;28;20063;-69
2022/08/19 07:01:00;;;;;;;18.58;16.58;;;23.50;99.90;;;;;;5094719;28;20379;-68
2022/08/19 07:03:31;;;;;;;18.08;15.00;;;23.40;99.90;;;;;;5093041;28;20024;-69
2022/08/19 07:05:57;;;;;;;18.55;15.48;;;23.50;99.90;;;;;;5095234;28;20016;-68
2022/08/19 07:08:24;;;;;;;18.10;14.88;;;23.50;99.90;;;;;;5093947;28;20100;-68
2022/08/19 07:10:49;;;;;;;17.30;15.23;;;23.60;99.90;;;;;;5095180;28;20024;-68
2022/08/19 07:13:15;;;;;;;17.38;15.05;;;23.60;99.90;;;;;;5095433;28;20089;-68
2022/08/19 07:15:40;;;;;;;;;;;23.60;99.90;;;;;;5096539;28;20099;-68
2022/08/19 07:18:06;;;;;;;18.52;13.90;;;23.70;99.90;;;;;;5096110;28;19930;-68
2022/08/19 07:20:32;;;;;;;16.00;13.52;;;23.90;99.90;;;;;;5096362;28;20077;-70
2022/08/19 07:22:58;;;;;;;15.10;13.50;;;24.10;99.90;;;;;;5094404;28;20024;-69
2022/08/19 07:25:23;;;;;;;15.20;12.98;;;24.20;99.90;;;;;;5095280;28;20060;-69
2022/08/19 07:27:50;;;;;;;;;;;24.30;99.90;;;;;;5093483;28;20055;-69
2022/08/19 07:30:15;;;;;;;23.92;14.30;;;24.40;99.90;;;;;;5094626;28;19926;-69
2022/08/19 07:32:42;;;;;;;15.35;12.77;;;24.50;99.90;;;;;;5093186;28;20028;-71
2022/08/19 07:35:09;;;;;;;15.68;12.73;;;24.60;99.90;;;;;;5094449;28;20028;-69
2022/08/19 07:37:36;;;;;;;16.20;13.38;;;24.60;99.90;;;;;;5093134;28;20473;-69
2022/08/19 07:40:04;;;;;;;14.40;12.90;;;24.40;99.90;;;;;;5094489;28;20097;-68
2022/08/19 07:42:29;;;;;;;14.38;12.63;;;24.40;99.90;;;;;;5094271;28;20027;-69
2022/08/19 07:44:55;;;;;;;;;;;24.40;99.90;;;;;;5094478;28;20020;-69
2022/08/19 07:47:20;;;;;;;16.23;13.02;;;24.50;99.90;;;;;;5094475;28;19944;-69
2022/08/19 07:49:46;;;;;;;;;;;24.60;99.90;;;;;;5094750;28;20484;-69
2022/08/19 07:52:12;;;;;;;16.88;12.48;;;24.70;99.90;;;;;;5093427;28;19935;-69
2022/08/19 07:54:38;;;;;;;;;;;24.80;99.90;;;;;;5094004;28;20127;-69
2022/08/19 07:57:04;;;;;;;16.17;11.25;;;24.90;99.90;;;;;;5093458;28;19943;-67
2022/08/19 07:59:30;;;;;;;;;;;25.00;99.90;;;;;;5093256;28;20020;-68
2022/08/19 08:01:59;;;;;;;15.05;11.35;;;25.00;99.90;;;;;;5093881;28;20371;-69
2022/08/19 08:09:53;;;;;;;12.70;10.68;;;24.80;99.90;;;;;;5094217;28;20073;-69
2022/08/19 08:12:21;;;;;;;;;;;24.70;99.90;;;;;;5094440;28;20031;-69
2022/08/19 08:14:51;;;;;;;16.20;12.00;;;24.70;99.90;;;;;;5093502;28;19942;-68
2022/08/19 08:17:23;;;;;;;15.23;11.75;;;24.90;99.90;;;;;;5092106;28;20035;-68
2022/08/19 08:19:50;;;;;;;13.65;10.85;;;25.00;99.90;;;;;;5092489;28;20499;-68
2022/08/19 08:25:17;;;;;;;12.65;11.23;;;25.40;99.90;;;;;;5093282;28;20031;-67
2022/08/19 08:27:44;;;;;;;15.45;11.07;;;25.70;99.90;;;;;;5092440;28;20033;-68
2022/08/19 08:30:14;;;;;;;10.85;9.75;;;26.00;99.90;;;;;;5091676;28;20050;-67
2022/08/19 08:32:41;;;;;;;12.27;9.23;;;26.30;99.90;;;;;;5092985;28;20024;-68
2022/08/19 08:35:09;;;;;;;13.20;9.95;;;26.50;99.90;;;;;;5093154;28;20020;-68
2022/08/19 08:37:34;;;;;;;14.38;11.15;;;26.60;99.90;;;;;;5092917;28;20089;-68
2022/08/19 08:40:06;;;;;;;;;;;26.60;99.90;;;;;;5092562;28;20468;-68
2022/08/19 08:42:39;;;;;;;12.05;8.65;;;26.60;99.80;;;;;;5093214;28;19953;-68
2022/08/19 08:45:14;;;;;;;9.40;8.18;;;26.40;99.60;;;;;;5093129;28;20020;-68
2022/08/19 08:47:46;;;;;;;11.05;7.93;;;26.40;99.50;;;;;;5091415;28;20020;-68
2022/08/19 08:50:22;;;;;;;11.30;7.97;;;26.40;99.60;;;;;;5092960;28;20017;-68
2022/08/19 08:52:50;;;;;;;;;;;26.50;99.40;;;;;;5093146;28;20396;-68
2022/08/19 08:55:23;;;;;;;10.90;8.65;;;26.60;99.20;;;;;;5092856;28;19950;-69
2022/08/19 08:57:48;;;;;;;9.73;8.10;;;27.20;98.50;;;;;;5091613;28;20081;-69
2022/08/19 09:00:16;;;;;;;;;;;27.90;97.30;;;;;;5091705;28;20028;-69
2022/08/19 09:02:43;;;;;;;10.05;7.13;;;28.30;96.70;;;;;;5092761;28;19908;-69
2022/08/19 09:05:12;;;;;;;9.98;7.50;;;28.80;96.00;;;;;;5092915;28;20063;-70
2022/08/19 09:08:08;;;;;;;9.50;6.43;;;29.40;94.90;;;;;;5092934;28;20024;-69
2022/08/19 09:10:44;;;;;;;10.23;6.13;;;30.40;93.40;;;;;;5091839;28;20024;-70
2022/08/19 09:13:44;;;;;;;6.85;6.15;;;31.20;91.90;;;;;;5092943;28;20392;-70
2022/08/19 09:16:17;;;;;;;7.55;6.18;;;31.30;91.00;;;;;;5091682;28;20028;-73
2022/08/19 09:18:52;;;;;;;8.13;6.13;;;30.70;91.10;;;;;;5093131;28;20024;-72
2022/08/19 09:21:18;;;;;;;6.80;5.95;;;30.80;90.70;;;;;;5091845;28;20024;-71
2022/08/19 09:23:44;;;;;;;9.70;6.10;;;30.80;90.50;;;;;;5093739;28;20085;-69
2022/08/19 09:26:14;;;;;;;7.03;5.78;;;31.10;90.00;;;;;;5093725;28;20028;-68
2022/08/19 09:28:43;;;;;;;9.15;5.90;;;31.30;89.50;;;;;;5095110;28;20333;-67
2022/08/19 09:31:10;;;;;;;7.43;6.60;;;31.40;88.70;;;;;;5095403;28;20176;-69
2022/08/19 09:33:36;;;;;;;7.93;6.03;;;31.10;87.70;;;;;;5096703;28;20425;-69
2022/08/19 09:36:07;;;;;;;7.45;5.53;;;30.60;88.90;;;;;;5095291;28;20030;-70
2022/08/19 09:38:34;;;;;;;6.97;5.32;;;30.90;87.50;;;;;;5096742;28;20016;-69
2022/08/19 09:41:07;;;;;;;9.70;5.68;;;31.40;87.40;;;;;;5096479;28;20028;-69
2022/08/19 09:43:36;;;;;;;7.78;4.80;;;32.50;85.20;;;;;;5096937;28;20046;-69
2022/08/19 09:46:05;;;;;;;5.78;4.63;;;33.50;82.30;;;;;;5096645;28;20066;-69
2022/08/19 09:48:31;;;;;;;5.97;4.53;;;34.80;78.70;;;;;;5096500;28;20016;-69
2022/08/19 09:51:03;;;;;;;5.43;4.57;;;36.60;74.80;;;;;;5096333;28;20019;-69
2022/08/19 09:53:29;;;;;;;5.85;4.90;;;37.60;70.80;;;;;;5096120;28;20036;-69
2022/08/19 09:55:55;;;;;;;5.70;4.22;;;38.70;67.40;;;;;;5096620;28;20034;-71
2022/08/19 09:58:22;;;;;;;5.90;4.80;;;39.00;66.20;;;;;;5096438;28;20434;-70
2022/08/19 10:00:48;;;;;;;6.28;4.35;;;39.50;64.10;;;;;;5095347;28;20032;-69
2022/08/19 10:03:13;;;;;;;12.10;4.93;;;39.00;63.90;;;;;;5095142;28;20024;-69
2022/08/19 10:05:47;;;;;;;4.65;4.22;;;39.20;63.70;;;;;;5096434;28;20113;-69
2022/08/19 10:08:13;;;;;;;5.15;3.85;;;39.80;62.60;;;;;;5099265;28;20425;-71
2022/08/19 10:10:40;;;;;;;7.22;5.00;;;38.10;63.40;;;;;;5095770;28;20020;-71
2022/08/19 10:13:06;;;;;;;5.63;4.70;;;36.10;65.10;;;;;;5096396;28;20420;-71
2022/08/19 10:15:31;;;;;;;5.38;4.60;;;34.90;67.10;;;;;;5094547;28;20096;-72
2022/08/19 10:17:59;;;;;;;6.85;5.38;;;33.30;70.00;;;;;;5095776;28;20149;-72
2022/08/19 10:20:25;;;;;;;6.30;5.35;;;32.70;71.00;;;;;;5096118;28;20020;-71
2022/08/19 10:22:50;;;;;;;7.68;5.20;;;32.30;72.50;;;;;;5095441;28;20548;-71
2022/08/19 10:25:17;;;;;;;6.15;4.53;;;33.00;72.00;;;;;;5094389;28;20090;-72
2022/08/19 10:27:42;;;;;;;8.63;4.65;;;33.90;71.20;;;;;;5095681;28;20020;-71
2022/08/19 10:30:09;;;;;;;5.32;4.20;;;34.30;69.80;;;;;;5095527;28;20023;-70
2022/08/19 10:32:35;;;;;;;7.10;4.43;;;35.40;68.40;;;;;;5095170;28;20024;-71
2022/08/19 10:35:02;;;;;;;8.38;4.70;;;36.20;66.60;;;;;;5095403;28;20480;-75
2022/08/19 10:37:30;;;;;;;5.32;4.53;;;35.80;65.20;;;;;;5094033;28;20020;-70
2022/08/19 10:39:56;;;;;;;5.30;4.63;;;34.50;67.00;;;;;;5095180;28;20027;-71
2022/08/19 10:42:21;;;;;;;4.90;4.40;;;34.60;67.20;;;;;;5093950;28;20020;-71
2022/08/19 10:44:47;;;;;;;8.27;4.30;;;36.20;65.70;;;;;;5095472;28;20016;-71
2022/08/19 10:47:12;;;;;;;5.40;4.90;;;37.20;64.00;;;;;;5093631;28;20020;-70
2022/08/19 10:52:33;;;;;;;7.38;4.82;;;37.80;62.00;;;;;;5095497;28;20473;-71
2022/08/19 10:52:36;;;;;;;4.78;3.88;;;38.40;62.20;;;;;;5095085;28;20538;-71
2022/08/19 10:57:48;;;;;;;7.38;4.65;;;38.50;61.20;;;;;;5095182;28;20069;-71
2022/08/19 11:00:14;;;;;;;5.45;4.55;;;38.70;61.00;;;;;;5094701;28;20024;-71
2022/08/19 11:02:40;;;;;;;5.57;4.50;;;38.80;60.40;;;;;;5094621;28;20039;-71
2022/08/19 11:05:06;;;;;;;5.57;4.90;;;38.60;60.60;;;;;;5093374;28;20028;-71
2022/08/19 11:07:32;;;;;;;6.80;5.10;;;38.20;60.90;;;;;;5093212;28;20016;-71
2022/08/19 11:09:58;;;;;;;5.93;4.72;;;37.60;61.30;;;;;;5094690;28;20419;-71
2022/08/19 11:12:24;;;;;;;9.13;7.18;;;36.80;62.30;;;;;;5094461;28;20024;-70
2022/08/19 11:14:50;;;;;;;9.30;6.47;;;35.00;64.10;;;;;;5094086;28;20380;-71
2022/08/19 11:17:15;;;;;;;13.43;8.38;;;33.40;66.70;;;;;;5094945;28;20505;-71
2022/08/19 11:19:42;;;;;;;7.13;5.53;;;32.70;68.70;;;;;;5093078;28;20040;-70
2022/08/19 11:22:09;;;;;;;7.10;5.40;;;32.20;69.10;;;;;;5093378;28;20031;-70
2022/08/19 11:24:35;;;;;;;11.68;7.53;;;31.60;70.20;;;;;;5093266;28;20035;-70
2022/08/19 11:27:07;;;;;;;9.20;7.25;;;31.10;71.80;;;;;;5092919;28;20042;-70
2022/08/19 11:29:34;;;;;;;7.35;5.97;;;30.70;72.70;;;;;;5094208;28;20157;-70
2022/08/19 11:32:03;;;;;;;35.60;22.05;;;30.20;73.90;;;;;;5093864;28;20028;-70
2022/08/19 11:34:29;;;;;;;20.05;13.18;;;30.00;76.10;;;;;;5093315;28;20020;-70
2022/08/19 11:36:59;;;;;;;23.90;14.45;;;29.70;76.50;;;;;;5093526;28;20046;-70
2022/08/19 11:39:27;;;;;;;23.92;14.63;;;29.50;77.10;;;;;;5093322;28;20020;-70
2022/08/19 11:41:53;;;;;;;12.32;9.18;;;29.30;77.70;;;;;;5094213;28;20483;-71
2022/08/19 11:44:19;;;;;;;9.82;6.63;;;29.30;77.30;;;;;;5092975;28;20024;-71
2022/08/19 11:46:46;;;;;;;10.55;6.88;;;29.80;76.70;;;;;;5094307;28;20028;-71
2022/08/19 11:49:13;;;;;;;8.75;6.13;;;30.20;75.80;;;;;;5093684;28;20147;-69
2022/08/19 11:51:39;;;;;;;6.72;5.50;;;30.20;75.40;;;;;;5093790;28;20041;-69
2022/08/19 11:54:05;;;;;;;9.68;6.15;;;30.40;75.00;;;;;;5093673;28;20036;-69
2022/08/19 11:56:31;;;;;;;6.40;5.72;;;30.40;74.90;;;;;;5093584;28;20020;-69
2022/08/19 11:58:57;;;;;;;7.50;5.78;;;30.40;75.00;;;;;;5093652;28;20031;-69
2022/08/19 12:01:25;;;;;;;5.40;4.90;;;30.40;75.00;;;;;;5093507;28;20381;-69
2022/08/19 12:03:52;;;;;;;5.55;4.97;;;30.20;74.40;;;;;;5091992;28;20024;-69
2022/08/19 12:06:28;;;;;;;6.55;5.15;;;30.20;74.30;;;;;;5093456;28;20032;-69
2022/08/19 12:08:54;;;;;;;6.35;5.00;;;30.10;74.60;;;;;;5093836;28;20369;-69
2022/08/19 12:11:20;;;;;;;6.20;5.60;;;29.80;74.50;;;;;;5093446;28;20039;-69
2022/08/19 12:13:47;;;;;;;7.93;5.10;;;29.70;74.80;;;;;;5093214;28;20024;-69
2022/08/19 12:16:16;;;;;;;7.70;5.55;;;29.60;75.40;;;;;;5091958;28;20024;-70
2022/08/19 12:18:46;;;;;;;5.55;4.95;;;29.30;76.10;;;;;;5092250;28;20028;-70
2022/08/19 12:21:16;;;;;;;6.45;5.72;;;29.00;76.90;;;;;;5092574;28;20031;-69
2022/08/19 12:23:44;;;;;;;6.38;5.75;;;28.80;77.50;;;;;;5092965;28;20028;-70
2022/08/19 12:26:11;;;;;;;6.97;5.30;;;28.50;78.00;;;;;;5091736;28;20027;-69
2022/08/19 12:28:37;;;;;;;13.20;5.85;;;28.40;79.00;;;;;;5093259;28;20598;-69
2022/08/19 12:31:03;;;;;;;6.05;5.50;;;28.30;79.60;;;;;;5093546;28;20417;-69
2022/08/19 12:33:29;;;;;;;7.13;5.60;;;28.30;79.80;;;;;;5091733;28;20024;-69
2022/08/19 12:35:59;;;;;;;7.78;6.00;;;28.10;80.40;;;;;;5091686;28;20053;-70
2022/08/19 12:38:25;;;;;;;6.55;5.47;;;28.10;79.60;;;;;;5091772;28;20027;-70
2022/08/19 12:40:51;;;;;;;6.25;5.65;;;28.10;80.10;;;;;;5091620;28;20042;-70
2022/08/19 12:43:19;;;;;;;6.75;5.70;;;28.10;80.10;;;;;;5093067;28;20020;-70
2022/08/19 12:45:45;;;;;;;7.55;5.18;;;28.20;80.20;;;;;;5092829;28;20069;-72
2022/08/19 12:48:11;;;;;;;10.60;6.10;;;28.40;79.20;;;;;;5092993;28;20020;-71
2022/08/19 12:50:40;;;;;;;6.53;5.70;;;28.60;79.80;;;;;;5091452;28;20024;-71
2022/08/19 12:53:06;;;;;;;6.40;5.47;;;28.90;78.30;;;;;;5092855;28;20369;-71
2022/08/19 12:55:31;;;;;;;5.95;5.40;;;29.20;76.50;;;;;;5092808;28;20046;-70
2022/08/19 12:57:57;;;;;;;7.22;4.88;;;29.30;75.80;;;;;;5092722;28;20053;-69
2022/08/19 13:00:23;;;;;;;5.32;4.55;;;29.40;74.90;;;;;;5091231;28;20024;-69
2022/08/19 13:02:51;;;;;;;5.63;5.05;;;29.60;74.20;;;;;;5091563;28;20062;-69